KPCM

Plant City Airport

Plant City, Florida, USA
METAR KPCM 171755Z AUTO 04004KT 10SM BKN047 33/21 A3013 RMK AO2
Observed Flight Rules
Oct-17 @ 17:55 UTC (25 minutes ago) Visual Flight Rules
Wind Visibility Clouds
40° at 4 knots 10 miles
  • Broken at 4,700' AGL
Temperatures Readings
Current 33°C / 91°F
Dewpoint 21°C / 70°F
Humidity 49%
Altimeter 30.13" Hg
Pressure 1020 hPa
Elevation 47
METAR KPCM 171755Z AUTO 04004KT 10SM BKN047 33/21 A3013 RMK AO2
Observed Flight Rules
Oct-17 @ 17:55 UTC
(25 minutes ago)
VFR
Wind Visibility
40° at 4 knots 10 miles
Clouds
  • Broken at 4,700' AGL
Temperature Dewpoint
33°C / 91°F 21°C / 70°F
Humidity Altimeter Pressure
49% 30.13" Hg 1020 hPa